Latest Coastal Weather Observations for Yarram Airport

IDV60701

Issued at 1:42 am EST Friday 22 September 2017 (issued every 10 minutes, with the page automatically refreshed every 10 minutes)

About coastal observations | Map of coastal stations | Coastal observations for VIC | Marine services | Other Formats
Station Details ID: 085151 Name: YARRAM AIRPORT Lat: -38.56 Lon: 146.75 Height: 17.9 m
Data from the previous 72 hours. | See also: Recent months at Yarram Airport
Date/Time
EST
Temp
°C
Wind Pressure Rain since
9am
mm
Weather Cloud Vis
km
Sea
Height
m
Swell
Dir  Spd
kts
Gust
kts
hPa Trend Height
m
Period
s
Dir
22/01:30am 9.5 W 8 9 1010.8 - 0.0 - - - - - - -
22/01:00am 8.8 W 6 7 1011.1 - 0.0 - - - - - - -
22/12:30am 9.9 W 7 8 1011.2 - 0.0 - - - - - - -
22/12:00am 10.1 W 7 9 1011.1 - 0.0 - - - - - - -
 
Date/Time
EST
Temp
°C
Wind Pressure Rain since
9am
mm
Weather Cloud Vis
km
Sea
Height
m
Swell
Dir  Spd
kts
Gust
kts
hPa Trend Height
m
Period
s
Dir
21/11:30pm 9.7 WNW 7 8 1010.8 - 0.0 - - - - - - -
21/11:00pm 10.1 WNW 8 8 1011.1 - 0.0 - - - - - - -
21/10:30pm 10.7 WNW 7 8 1011.3 - 0.0 - - - - - - -
21/10:00pm 11.5 W 9 10 1010.9 - 0.0 - - - - - - -
21/09:30pm 11.0 W 6 7 1010.7 - 0.0 - - - - - - -
21/09:00pm 10.6 W 5 6 1010.5 - 0.0 - - - - - - -
21/08:30pm 11.7 WSW 6 8 1010.5 - 0.0 - - - - - - -
21/08:00pm 12.9 WSW 9 11 1010.3 - 0.0 - - - - - - -
21/07:30pm 13.6 WSW 9 15 1010.0 - 0.0 - - - - - - -
21/07:00pm 13.6 SW 10 14 1009.5 - 0.0 - - - - - - -
21/06:30pm 14.4 NNW 1 5 1008.2 - 0.0 - - - - - - -
21/06:00pm 17.6 CALM 0 1 1007.9 - 0.0 - - - - - - -
21/05:30pm 19.1 NW 6 9 1007.6 - 0.0 - - - - - - -
21/05:00pm 19.5 WNW 7 11 1007.2 - 0.0 - - - - - - -
21/04:30pm 19.5 NW 6 11 1007.0 - 0.0 - - - - - - -
21/04:00pm 20.4 NNW 9 13 1006.7 - 0.0 - - - - - - -
21/03:30pm 20.6 NNW 11 17 1006.4 - 0.0 - - - - - - -
21/03:00pm 21.0 N 11 15 1006.7 - 0.0 - - - - - - -
21/02:30pm 20.2 NNW 9 14 1007.0 - 0.0 - - - - - - -
21/02:00pm 20.0 NNW 10 14 1007.3 - 0.0 - - - - - - -
21/01:30pm 19.4 NNW 12 19 1007.6 - 0.0 - - - - - - -
21/01:00pm 19.3 NNW 11 16 1008.0 - 0.0 - - - - - - -
21/12:30pm 19.1 N 8 11 1008.7 - 0.0 - - - - - - -
21/12:00pm 19.6 N 11 15 1009.0 - 0.0 - - - - - - -
21/11:30am 15.8 ENE 10 15 1009.2 - 0.0 - - - - - - -
21/11:00am 15.7 NNE 9 12 1010.0 - 0.0 - - - - - - -
21/10:30am 15.7 NE 4 8 1010.5 - 0.0 - - - - - - -
21/10:00am 14.9 E 5 7 1011.2 - 0.0 - - - - - - -
21/09:30am 15.3 E 6 9 1011.8 - 0.0 - - - - - - -
21/09:00am 15.0 ENE 6 8 1011.9 - 0.0 - - - - - - -
21/08:30am 14.9 ENE 8 12 1011.9 - 0.0 - - - - - - -
21/08:00am 15.0 NE 10 13 1011.9 - 0.0 - - - - - - -
21/07:30am 13.7 NNE 8 12 1012.0 - 0.0 - - - - - - -
21/07:00am 10.0 NNE 11 15 1012.0 - 0.0 - - - - - - -
21/06:30am 5.0 NNE 6 8 1012.3 - 0.0 - - - - - - -
21/06:00am 6.1 NE 5 6 1012.7 - 0.0 - - - - - - -
21/05:30am 5.0 NW 3 5 1012.7 - 0.0 - - - - - - -
21/05:00am 5.9 WSW 5 6 1012.8 - 0.0 - - - - - - -
21/04:30am 8.3 NE 5 7 1012.7 - 0.0 - - - - - - -
21/04:00am 8.4 ENE 5 6 1012.7 - 0.0 - - - - - - -
21/03:30am 7.2 NE 6 7 1013.2 - 0.0 - - - - - - -
21/03:00am 9.1 NE 8 9 1013.3 - 0.0 - - - - - - -
21/02:30am 8.2 NNE 7 9 1013.7 - 0.0 - - - - - - -
21/02:00am 7.6 NE 6 7 1013.9 - 0.0 - - - - - - -
21/01:30am 7.5 NE 6 7 1014.4 - 0.0 - - - - - - -
21/01:00am 8.2 ENE 6 8 1014.8 - 0.0 - - - - - - -
21/12:30am 8.4 ENE 5 7 1015.2 - 0.0 - - - - - - -
21/12:00am 7.6 NE 1 4 1015.5 - 0.0 - - - - - - -
 
Date/Time
EST
Temp
°C
Wind Pressure Rain since
9am
mm
Weather Cloud Vis
km
Sea
Height
m
Swell
Dir  Spd
kts
Gust
kts
hPa Trend Height
m
Period
s
Dir
20/11:30pm 8.3 NNE 6 7 1015.5 - 0.0 - - - - - - -
20/11:00pm 8.8 NE 6 8 1015.6 - 0.0 - - - - - - -
20/10:30pm 8.8 ENE 5 7 1015.7 - 0.0 - - - - - - -
20/10:00pm 9.6 NE 9 11 1015.5 - 0.0 - - - - - - -
20/09:30pm 9.1 NNE 10 13 1015.8 - 0.0 - - - - - - -
20/09:00pm 8.2 NNE 8 10 1016.3 - 0.0 - - - - - - -
20/08:30pm 8.5 NE 5 7 1016.5 - 0.0 - - - - - - -
20/08:00pm 8.8 ENE 6 7 1016.4 - 0.0 - - - - - - -
20/07:30pm 9.2 ENE 5 6 1016.4 - 0.0 - - - - - - -
20/07:00pm 9.8 E 4 6 1016.2 - 0.0 - - - - - - -
20/06:30pm 10.4 ENE 5 8 1015.6 - 0.0 - - - - - - -
20/06:00pm 10.8 ENE 6 9 1015.3 - 0.0 - - - - - - -
20/05:30pm 12.4 E 8 10 1015.3 - 0.0 - - - - - - -
20/05:00pm 13.4 E 8 11 1015.5 - 0.0 - - - - - - -
20/04:30pm 14.4 E 8 11 1015.6 - 0.0 - - - - - - -
20/04:00pm 14.9 E 7 11 1015.5 - 0.0 - - - - - - -
20/03:30pm 15.6 E 7 9 1015.8 - 0.0 - - - - - - -
20/03:00pm 17.0 NW 4 7 1015.8 - 0.0 - - - - - - -
20/02:30pm 17.0 N 4 7 1015.9 - 0.0 - - - - - - -
20/02:00pm 16.6 WNW 6 9 1016.4 - 0.0 - - - - - - -
20/01:30pm 15.8 SSW 3 6 1017.2 - 0.0 - - - - - - -
20/01:00pm 15.0 SSW 7 11 1017.9 - 0.0 - - - - - - -
20/12:30pm 15.6 WSW 8 12 1018.3 - 0.0 - - - - - - -
20/12:00pm 15.3 WSW 9 13 1019.0 - 0.0 - - - - - - -
20/11:30am 14.9 W 7 11 1019.2 - 0.0 - - - - - - -
20/11:00am 14.3 W 7 12 1019.5 - 0.0 - - - - - - -
20/10:30am 13.7 NW 6 11 1019.8 - 0.0 - - - - - - -
20/10:00am 13.4 W 7 9 1020.2 - 0.0 - - - - - - -
20/09:30am 13.0 NW 7 10 1020.4 - 0.0 - - - - - - -
20/09:00am 11.9 NW 8 10 1020.8 - 0.6 - - - - - - -
20/08:30am 10.9 NW 4 6 1020.7 - - - - - - - - -
20/08:00am 10.0 WNW 3 5 1021.1 - - - - - - - - -
20/07:30am 9.4 WNW 2 4 1021.0 - - - - - - - - -
20/07:00am 8.8 WNW 4 5 1020.9 - - - - - - - - -
20/06:30am 8.5 NW 5 6 1020.7 - - - - - - - - -
20/06:00am 8.2 NNW 4 5 1020.7 - - - - - - - - -
20/05:30am 8.6 NW 7 9 1020.5 - - - - - - - - -
20/05:00am 8.3 NW 5 6 1020.5 - - - - - - - - -
20/04:30am 8.2 NW 4 5 1020.1 - - - - - - - - -
20/04:00am 8.4 NW 6 8 1020.1 - - - - - - - - -
20/03:30am 8.9 WNW 8 13 1020.2 - - - - - - - - -
20/03:00am 8.5 NW 7 9 1020.3 - 0.0 - - - - - - -
20/02:30am 8.0 NW 6 7 1020.4 - - - - - - - - -
20/02:00am 8.6 WNW 9 13 1020.5 - - - - - - - - -
20/01:30am 8.7 WNW 12 16 1020.9 - - - - - - - - -
20/01:00am 9.0 WNW 8 10 1021.1 - - - - - - - - -
20/12:30am 9.0 WNW 8 11 1021.1 - - - - - - - - -
20/12:00am 9.1 WNW 7 11 1021.0 - - - - - - - - -
 
Date/Time
EST
Temp
°C
Wind Pressure Rain since
9am
mm
Weather Cloud Vis
km
Sea
Height
m
Swell
Dir  Spd
kts
Gust
kts
hPa Trend Height
m
Period
s
Dir
19/11:30pm 8.8 WNW 7 9 1021.1 - - - - - - - - -
19/11:00pm 8.8 WNW 8 11 1021.3 - - - - - - - - -
19/10:30pm 9.0 W 10 15 1021.5 - - - - - - - - -
19/10:00pm 9.3 W 13 20 1021.5 - - - - - - - - -
19/09:30pm 7.7 WNW 6 7 1021.5 - - - - - - - - -
19/09:00pm 7.9 WNW 7 8 1021.2 - 0.2 Recent precip. - - - - - -
19/08:30pm 7.5 WNW 6 7 1021.2 - - - - - - - - -
19/08:00pm 7.4 W 5 7 1021.0 - - - - - - - - -
19/07:30pm 7.3 W 7 10 1020.8 - - - - - - - - -
19/07:00pm 7.5 W 8 10 1020.4 - - - - - - - - -
19/06:30pm 8.3 W 9 12 1020.1 - - - - - - - - -
19/06:00pm 9.3 WSW 15 23 1019.6 - - - - - - - - -
19/05:30pm 9.8 W 12 15 1019.5 - - - - - - - - -
19/05:00pm 11.0 WSW 14 23 1019.3 - - - - - - - - -
19/04:30pm 11.6 W 18 24 1018.8 - - - - - - - - -
19/04:00pm 12.3 W 15 25 1018.5 - - - - - - - - -
19/03:59pm 12.0 W 15 25 1018.5 - - - - - - - - -
19/03:30pm 10.2 WSW 19 27 1018.2 - - - - - - - - -
19/03:00pm 12.1 WSW 19 28 1017.7 - 0.4 - - - - - - -
19/02:52pm 12.4 WSW 17 27 1017.7 - - - - - - - - -
19/02:30pm 10.8 WSW 20 27 1017.6 - - - - - - - - -
19/02:14pm 11.1 WSW 23 35 1017.7 - - - - - - - - -
19/02:00pm 12.2 WSW 22 29 1017.2 - - - - - - - - -
19/01:44pm 12.6 WSW 20 30 1017.0 - - - - - - - - -
19/01:30pm 11.7 WSW 21 29 1016.9 - - - - - - - - -
19/01:00pm 12.1 S 10 30 1016.7 - 0.4 - - - - - - -
19/12:30pm 11.5 WSW 21 29 1016.6 - 0.4 - - - - - - -
19/12:00pm 11.1 SW 23 30 1016.6 - 0.4 - - - - - - -
19/11:30am 10.1 WSW 18 28 1016.5 - 0.4 - - - - - - -
19/11:07am 10.0 WSW 15 25 1016.6 - 0.4 - - - - - - -
19/11:00am 9.3 WSW 16 24 1016.4 - 0.4 - - - - - - -
19/10:43am 10.6 WSW 23 33 1016.2 - 0.2 - - - - - - -
19/10:30am 11.6 WSW 21 29 1015.8 - 0.2 - - - - - - -
19/10:00am 10.5 WSW 18 28 1015.9 - 0.2 - - - - - - -
19/09:35am 11.1 WSW 17 27 1015.5 - 0.0 - - - - - - -
19/09:30am 11.2 WSW 15 21 1015.5 - 0.0 - - - - - - -
19/09:00am 9.9 W 14 19 1015.5 - 2.6 Recent precip. - - - - - -
19/08:30am 8.3 W 18 29 1015.2 - 2.6 - - - - - - -
19/08:25am 8.4 W 17 29 1015.3 - 2.6 - - - - - - -
19/08:00am 8.7 W 11 20 1014.5 - 2.2 - - - - - - -
19/07:30am 8.7 WNW 13 20 1014.3 - 2.2 - - - - - - -
19/07:00am 7.8 W 13 19 1013.8 - 2.0 - - - - - - -
19/06:30am 8.0 WNW 11 14 1013.2 - 1.6 - - - - - - -
19/06:00am 8.6 WNW 12 16 1012.7 - 0.4 Recent precip. - - - - - -
19/05:30am 8.7 W 15 20 1012.1 - 0.2 - - - - - - -
19/05:22am 8.6 W 15 25 1011.8 - 0.2 - - - - - - -
19/05:00am 8.9 WNW 13 18 1011.8 - 0.2 - - - - - - -
19/04:30am 9.3 WNW 16 27 1011.0 - 0.0 - - - - - - -
19/04:00am 10.3 WNW 18 25 1010.6 - 0.0 - - - - - - -
19/03:30am 9.7 W 14 19 1010.4 - 0.0 - - - - - - -
19/03:00am 10.8 W 17 23 1010.4 - 0.0 - - - - - - -
19/02:30am 11.2 WNW 19 26 1010.0 - 0.0 - - - - - - -
19/02:00am 11.5 WNW 20 31 1009.9 - 0.0 - - - - - - -

Other Formats:

Comma delimited format used in spreadsheet applications
http://www.bom.gov.au/fwo/IDV60701/IDV60701.95890.axf

JavaScript Object Notation format (JSON) in row-major order
http://www.bom.gov.au/fwo/IDV60701/IDV60701.95890.json